Terminal Aerodrome Forecast
Issued by NWS

Home | Current Version | Previous Version | Graphics & Text | Print | Product List | Glossary On
Versions: 1 2 3 4 5 6 7 8 9 10 11 12 13 14
690
FTUS45 KGGW 211126
TAFSDY
TAF
KSDY 211126Z 2112/2212 VRB05KT P6SM SCT100
     FM211400 29017G26KT P6SM SKC
     FM220200 34008KT P6SM BKN130
     FM220700 30005KT P6SM SCT110=

USA.gov is the U.S. government's official web portal to all federal, state and local government web resources and services.